createdAt,value
2019-04-07T00:01:52.706Z,97.50
2019-04-07T00:04:22.617Z,98.00
2019-04-07T00:06:53.201Z,97.90
2019-04-07T00:09:23.271Z,98.00
2019-04-07T00:11:53.620Z,98.00
2019-04-07T00:14:23.594Z,98.00
2019-04-07T00:16:53.744Z,98.10
2019-04-07T00:19:23.754Z,98.30
2019-04-07T00:21:53.991Z,98.90
2019-04-07T00:24:24.525Z,98.70
2019-04-07T00:26:54.569Z,98.60
2019-04-07T00:29:24.501Z,98.80
2019-04-07T00:31:54.397Z,98.70
2019-04-07T00:34:24.787Z,99.30
2019-04-07T00:36:54.773Z,98.80
2019-04-07T00:39:25.032Z,99.90
2019-04-07T00:41:55.097Z,98.70
2019-04-07T00:44:25.409Z,99.50
2019-04-07T00:46:55.312Z,99.20
2019-04-07T00:49:25.768Z,99.60
2019-04-07T00:51:57.374Z,99.70
2019-04-07T00:54:28.023Z,99.70
2019-04-07T00:56:59.269Z,99.90
2019-04-07T00:59:29.714Z,99.80
2019-04-07T01:02:00.304Z,99.90
2019-04-07T01:04:30.690Z,99.90
2019-04-07T01:07:00.770Z,99.90
2019-04-07T01:09:31.067Z,99.90
2019-04-07T01:12:01.165Z,99.90
2019-04-07T01:14:31.442Z,99.90
2019-04-07T01:17:01.685Z,99.90
2019-04-07T01:19:31.934Z,99.90
2019-04-07T01:22:02.362Z,99.90
2019-04-07T01:24:33.087Z,99.90
2019-04-07T01:27:03.010Z,99.90
2019-04-07T01:29:33.229Z,99.90
2019-04-07T01:32:03.770Z,99.90
2019-04-07T01:34:34.069Z,99.90
2019-04-07T01:37:04.405Z,99.90
2019-04-07T01:39:34.987Z,99.90
2019-04-07T01:42:33.306Z,99.90
2019-04-07T01:45:40.497Z,99.90
2019-04-07T01:48:16.086Z,99.90
2019-04-07T01:51:10.742Z,99.90
2019-04-07T01:53:55.194Z,99.90
2019-04-07T01:56:43.699Z,99.90
2019-04-07T01:59:32.420Z,99.90
2019-04-07T02:02:22.873Z,99.90
2019-04-07T02:05:11.486Z,99.90
2019-04-07T02:08:03.368Z,99.90
2019-04-07T02:11:04.036Z,99.90
2019-04-07T02:13:53.313Z,99.90
2019-04-07T02:16:41.132Z,99.90
2019-04-07T02:19:30.502Z,99.90
2019-04-07T02:22:10.165Z,99.90
2019-04-07T02:24:55.630Z,99.90
2019-04-07T02:27:31.826Z,99.90
2019-04-07T02:30:16.162Z,99.90
2019-04-07T02:33:03.268Z,99.90
2019-04-07T02:35:53.672Z,99.90
2019-04-07T02:38:51.984Z,99.90
2019-04-07T02:41:53.676Z,99.90
2019-04-07T02:44:46.466Z,99.90
2019-04-07T02:47:34.052Z,99.90
2019-04-07T02:50:15.387Z,99.90
2019-04-07T02:53:07.656Z,99.90
2019-04-07T02:55:56.855Z,99.90
2019-04-07T02:58:58.241Z,99.90
2019-04-07T03:01:43.465Z,99.90
2019-04-07T03:04:23.087Z,99.90
2019-04-07T03:07:04.929Z,99.90
2019-04-07T03:09:53.518Z,99.90
2019-04-07T03:12:37.722Z,99.90
2019-04-07T03:15:14.028Z,99.90
2019-04-07T03:18:03.194Z,99.90
2019-04-07T03:20:55.775Z,99.90
2019-04-07T03:23:41.534Z,99.90
2019-04-07T03:26:27.611Z,99.90
2019-04-07T03:29:16.471Z,99.90
2019-04-07T03:32:15.842Z,99.90
2019-04-07T03:35:19.796Z,99.90
2019-04-07T03:38:04.723Z,99.90
2019-04-07T03:40:52.361Z,99.90
2019-04-07T03:43:38.764Z,99.90
2019-04-07T03:46:22.372Z,99.90
2019-04-07T03:49:04.334Z,99.90
2019-04-07T03:51:59.893Z,99.90
2019-04-07T03:54:47.606Z,99.90
2019-04-07T03:57:24.193Z,99.90
2019-04-07T04:00:23.034Z,99.90
2019-04-07T04:03:02.915Z,99.90
2019-04-07T04:06:00.923Z,99.90
2019-04-07T04:08:41.825Z,99.90
2019-04-07T04:11:28.635Z,99.90
2019-04-07T04:14:13.349Z,99.90
2019-04-07T04:16:46.297Z,99.90
2019-04-07T04:19:16.195Z,99.90
2019-04-07T04:21:46.127Z,99.90
2019-04-07T04:24:16.746Z,99.90
2019-04-07T04:26:47.544Z,99.90
2019-04-07T04:29:17.607Z,99.90
2019-04-07T04:31:47.529Z,99.90
2019-04-07T04:34:17.443Z,99.90
2019-04-07T04:36:47.987Z,99.90
2019-04-07T04:39:19.656Z,99.90
2019-04-07T04:41:49.500Z,99.90
2019-04-07T04:44:19.418Z,99.90
2019-04-07T04:46:49.274Z,99.90
2019-04-07T04:49:19.989Z,99.90
2019-04-07T04:51:50.272Z,99.90
2019-04-07T04:54:20.179Z,99.90
2019-04-07T04:56:50.368Z,99.90
2019-04-07T04:59:21.552Z,99.90
2019-04-07T05:01:51.551Z,99.90
2019-04-07T05:04:21.754Z,99.90
2019-04-07T05:06:52.492Z,99.90
2019-04-07T05:09:23.163Z,99.90
2019-04-07T05:11:53.985Z,99.90
2019-04-07T05:14:24.189Z,99.90
2019-04-07T05:16:54.756Z,99.90
2019-04-07T05:19:24.756Z,99.90
2019-04-07T05:21:55.884Z,99.90
2019-04-07T05:24:25.861Z,99.90
2019-04-07T05:26:55.797Z,99.90
2019-04-07T05:29:25.891Z,99.90
2019-04-07T05:31:55.845Z,99.90
2019-04-07T05:34:25.809Z,99.90
2019-04-07T05:36:56.118Z,99.90
2019-04-07T05:39:26.034Z,99.90
2019-04-07T05:41:55.845Z,99.90
2019-04-07T05:44:25.706Z,99.90
2019-04-07T05:46:56.033Z,99.90
2019-04-07T05:49:27.045Z,99.90
2019-04-07T05:51:58.709Z,99.90
2019-04-07T05:54:28.672Z,99.90
2019-04-07T05:57:01.169Z,99.90
2019-04-07T05:59:30.356Z,99.90
2019-04-07T06:02:01.830Z,99.90
2019-04-07T06:04:31.872Z,99.90
2019-04-07T06:07:01.853Z,99.90
2019-04-07T06:09:33.801Z,99.90
2019-04-07T06:12:09.073Z,99.90
2019-04-07T06:14:34.850Z,99.90
2019-04-07T06:17:04.972Z,99.90
2019-04-07T06:19:40.580Z,99.90
2019-04-07T06:22:07.577Z,99.90
2019-04-07T06:24:38.413Z,99.90
2019-04-07T06:27:08.814Z,99.90
2019-04-07T06:29:39.097Z,99.90
2019-04-07T06:32:10.390Z,99.90
2019-04-07T06:34:43.358Z,99.90
2019-04-07T06:37:12.559Z,99.40
2019-04-07T06:42:12.018Z,95.70
2019-04-07T06:44:41.977Z,93.40
2019-04-07T06:47:17.997Z,97.20
2019-04-07T06:49:55.392Z,94.60
2019-04-07T06:52:56.661Z,99.90
2019-04-07T06:56:03.040Z,99.90
2019-04-07T06:58:41.819Z,98.30
2019-04-07T07:01:33.963Z,95.70
2019-04-07T07:04:23.227Z,92.70
2019-04-07T07:07:06.514Z,93.40
2019-04-07T07:09:58.069Z,90.60
2019-04-07T07:12:44.045Z,93.00
2019-04-07T07:15:45.009Z,91.50
2019-04-07T07:18:21.318Z,91.60
2019-04-07T07:21:03.779Z,89.80
2019-04-07T07:23:37.463Z,89.20
2019-04-07T07:26:08.124Z,84.90
2019-04-07T07:28:38.092Z,76.90
2019-04-07T07:31:07.968Z,75.50
2019-04-07T07:33:40.423Z,71.20
2019-04-07T07:36:09.598Z,69.10
2019-04-07T07:38:39.741Z,70.30
2019-04-07T07:41:09.918Z,70.20
2019-04-07T07:43:40.280Z,72.70
2019-04-07T07:46:10.236Z,75.70
2019-04-07T07:48:40.141Z,81.90
2019-04-07T07:51:12.932Z,78.10
2019-04-07T07:53:41.591Z,78.10
2019-04-07T07:56:13.579Z,82.30
2019-04-07T07:58:45.101Z,82.40
2019-04-07T08:01:15.936Z,77.80
2019-04-07T08:03:46.820Z,70.80
2019-04-07T08:06:17.340Z,70.30
2019-04-07T08:08:47.816Z,70.20
2019-04-07T08:11:18.770Z,65.10
2019-04-07T08:13:49.129Z,63.40
2019-04-07T08:16:19.253Z,60.60
2019-04-07T08:18:49.891Z,61.20
2019-04-07T08:21:20.413Z,61.20
2019-04-07T08:23:50.627Z,63.40
2019-04-07T08:26:24.299Z,62.80
2019-04-07T08:28:52.595Z,62.70
2019-04-07T08:31:24.046Z,61.20
2019-04-07T08:33:54.824Z,59.30
2019-04-07T08:36:24.855Z,55.60
2019-04-07T08:38:56.744Z,53.10
2019-04-07T08:41:26.727Z,52.80
2019-04-07T08:43:57.881Z,57.00
2019-04-07T08:46:32.206Z,55.70
2019-04-07T08:49:03.118Z,56.00
2019-04-07T08:51:33.649Z,56.80
2019-04-07T08:54:04.769Z,57.90
2019-04-07T08:56:35.206Z,61.00
2019-04-07T08:59:08.476Z,59.40
2019-04-07T09:01:37.198Z,57.00
2019-04-07T09:04:07.683Z,56.40
2019-04-07T09:06:38.576Z,56.90
2019-04-07T09:09:09.088Z,57.20
2019-04-07T09:11:41.181Z,56.40
2019-04-07T09:14:11.721Z,59.40
2019-04-07T09:17:00.634Z,60.20
2019-04-07T09:19:58.559Z,60.10
2019-04-07T09:22:47.495Z,61.50
2019-04-07T09:25:43.603Z,59.70
2019-04-07T09:28:41.956Z,64.20
2019-04-07T09:31:33.637Z,63.00
2019-04-07T09:34:22.244Z,66.00
2019-04-07T09:37:02.221Z,65.30
2019-04-07T09:39:59.594Z,64.40
2019-04-07T09:42:37.893Z,66.50
2019-04-07T09:45:27.664Z,64.20
2019-04-07T09:48:17.719Z,74.00
2019-04-07T09:51:07.234Z,68.50
2019-04-07T09:54:00.883Z,71.10
2019-04-07T09:56:48.411Z,69.00
2019-04-07T09:59:37.530Z,69.50
2019-04-07T10:02:26.152Z,66.70
2019-04-07T10:05:14.221Z,72.90
2019-04-07T10:08:03.301Z,74.10
2019-04-07T10:11:08.443Z,74.00
2019-04-07T10:13:57.800Z,71.70
2019-04-07T10:16:35.383Z,74.30
2019-04-07T10:19:33.838Z,76.00
2019-04-07T10:22:15.036Z,75.70
2019-04-07T10:24:58.281Z,77.60
2019-04-07T10:27:59.435Z,78.50
2019-04-07T10:30:39.945Z,76.10
2019-04-07T10:33:27.542Z,82.00
2019-04-07T10:36:23.641Z,74.70
2019-04-07T10:39:00.963Z,77.70
2019-04-07T10:41:49.584Z,87.70
2019-04-07T10:44:53.784Z,80.10
2019-04-07T10:47:43.664Z,88.60
2019-04-07T10:50:36.716Z,80.60
2019-04-07T10:53:20.577Z,83.80
2019-04-07T10:56:08.817Z,84.70
2019-04-07T10:58:58.236Z,83.10
2019-04-07T11:01:36.224Z,90.70
2019-04-07T11:04:19.880Z,90.90
2019-04-07T11:07:03.002Z,91.00
2019-04-07T11:09:58.911Z,92.40
2019-04-07T11:12:48.040Z,86.40
2019-04-07T11:15:43.239Z,82.90
2019-04-07T11:18:34.884Z,78.80
2019-04-07T11:21:22.701Z,78.10
2019-04-07T11:24:10.501Z,77.60
2019-04-07T11:27:05.636Z,79.80
2019-04-07T11:29:43.697Z,82.30
2019-04-07T11:32:35.928Z,85.70
2019-04-07T11:35:29.899Z,76.30
2019-04-07T11:38:19.819Z,87.80
2019-04-07T11:41:12.350Z,79.00
2019-04-07T11:44:20.335Z,82.40
2019-04-07T11:46:59.425Z,84.20
2019-04-07T11:49:41.413Z,85.00
2019-04-07T11:52:27.828Z,82.40
2019-04-07T11:55:08.567Z,79.90
2019-04-07T11:58:15.132Z,79.80
2019-04-07T12:00:59.264Z,77.00
2019-04-07T12:03:54.995Z,80.20
2019-04-07T12:06:36.239Z,79.10
2019-04-07T12:09:18.510Z,77.30
2019-04-07T12:11:58.221Z,81.00
2019-04-07T12:14:41.747Z,76.60
2019-04-07T12:17:33.984Z,71.30
2019-04-07T12:20:25.656Z,73.90
2019-04-07T12:23:20.950Z,73.10
2019-04-07T12:26:02.188Z,76.00
2019-04-07T12:28:50.426Z,74.70
2019-04-07T12:31:37.830Z,74.70
2019-04-07T12:34:24.218Z,69.60
2019-04-07T12:37:12.154Z,66.10
2019-04-07T12:39:50.927Z,67.20
2019-04-07T12:42:58.150Z,71.10
2019-04-07T12:45:59.363Z,69.10
2019-04-07T12:48:51.075Z,73.40
2019-04-07T12:51:32.920Z,68.60
2019-04-07T12:54:28.761Z,66.70
2019-04-07T12:57:16.864Z,64.30
2019-04-07T13:00:03.576Z,63.10
2019-04-07T13:02:53.937Z,68.70
2019-04-07T13:05:55.251Z,65.40
2019-04-07T13:08:57.823Z,63.80
2019-04-07T13:11:38.218Z,69.90
2019-04-07T13:14:23.784Z,65.40
2019-04-07T13:17:31.637Z,67.60
2019-04-07T13:20:11.872Z,66.50
2019-04-07T13:23:00.343Z,63.80
2019-04-07T13:25:50.468Z,63.50
2019-04-07T13:28:44.730Z,62.80
2019-04-07T13:31:33.548Z,64.20
2019-04-07T13:34:18.849Z,60.80
2019-04-07T13:37:13.543Z,63.60
2019-04-07T13:40:02.401Z,62.00
2019-04-07T13:42:39.016Z,62.10
2019-04-07T13:45:19.157Z,61.50
2019-04-07T13:48:11.612Z,58.70
2019-04-07T13:51:04.606Z,60.10
2019-04-07T13:53:52.778Z,59.70
2019-04-07T13:56:41.895Z,57.80
2019-04-07T13:59:44.532Z,56.40
2019-04-07T14:02:40.988Z,55.40
2019-04-07T14:05:13.039Z,56.70
2019-04-07T14:08:00.804Z,55.70
2019-04-07T14:10:38.292Z,54.70
2019-04-07T14:13:28.198Z,53.00
2019-04-07T14:16:20.114Z,53.50
2019-04-07T14:19:08.943Z,52.30
2019-04-07T14:22:13.290Z,51.30
2019-04-07T14:24:54.768Z,51.20
2019-04-07T14:27:43.661Z,49.00
2019-04-07T14:30:21.296Z,47.40
2019-04-07T14:33:21.448Z,49.30
2019-04-07T14:36:04.416Z,49.70
2019-04-07T14:38:45.596Z,49.40
2019-04-07T14:41:32.005Z,49.00
2019-04-07T14:44:30.430Z,48.90
2019-04-07T14:47:26.115Z,48.40
2019-04-07T14:50:08.028Z,49.90
2019-04-07T14:52:56.665Z,50.40
2019-04-07T14:55:45.670Z,50.00
2019-04-07T14:58:38.033Z,50.70
2019-04-07T15:01:22.573Z,52.80
2019-04-07T15:03:52.577Z,55.60
2019-04-07T15:06:23.881Z,59.10
2019-04-07T15:09:06.750Z,56.90
2019-04-07T15:11:39.589Z,55.60
2019-04-07T15:14:11.615Z,57.80
2019-04-07T15:16:41.114Z,59.00
2019-04-07T15:19:12.453Z,59.80
2019-04-07T15:21:50.783Z,58.20
2019-04-07T15:24:20.588Z,57.70
2019-04-07T15:26:54.756Z,59.10
2019-04-07T15:29:31.323Z,59.00
2019-04-07T15:32:02.950Z,59.40
2019-04-07T15:34:34.885Z,60.80
2019-04-07T15:37:10.813Z,59.40
2019-04-07T15:39:47.240Z,63.20
2019-04-07T15:45:16.747Z,60.70
2019-04-07T15:47:47.300Z,61.50
2019-04-07T15:50:24.797Z,61.80
2019-04-07T15:56:08.281Z,66.30
2019-04-07T15:58:41.800Z,71.70
2019-04-07T16:01:17.246Z,71.30
2019-04-07T16:03:51.324Z,69.60
2019-04-07T16:06:20.589Z,63.70
2019-04-07T16:08:51.211Z,71.30
2019-04-07T16:11:24.186Z,63.70
2019-04-07T16:13:54.077Z,65.50
2019-04-07T16:16:27.484Z,66.10
2019-04-07T16:18:55.666Z,73.50
2019-04-07T16:21:27.842Z,67.00
2019-04-07T16:23:57.422Z,68.10
2019-04-07T16:26:30.192Z,73.30
2019-04-07T16:28:58.861Z,67.20
2019-04-07T16:31:28.887Z,68.10
2019-04-07T16:33:59.180Z,67.00
2019-04-07T16:36:30.181Z,68.60
2019-04-07T16:39:01.907Z,75.80
2019-04-07T16:41:31.704Z,70.90
2019-04-07T16:44:04.775Z,68.60
2019-04-07T16:46:33.753Z,70.60
2019-04-07T16:49:04.554Z,71.80
2019-04-07T16:51:35.127Z,71.20
2019-04-07T16:54:08.336Z,70.10
2019-04-07T16:56:37.968Z,72.10
2019-04-07T16:59:09.768Z,73.70
2019-04-07T17:01:39.938Z,74.50
2019-04-07T17:04:09.953Z,81.30
2019-04-07T17:06:40.181Z,81.90
2019-04-07T17:09:22.151Z,74.40
2019-04-07T17:11:50.475Z,76.00
2019-04-07T17:14:20.618Z,75.90
2019-04-07T17:16:50.663Z,76.90
2019-04-07T17:19:21.383Z,77.00
2019-04-07T17:21:51.965Z,78.00
2019-04-07T17:24:25.074Z,77.20
2019-04-07T17:26:53.554Z,79.30
2019-04-07T17:29:23.865Z,79.50
2019-04-07T17:31:55.466Z,78.30
2019-04-07T17:34:26.173Z,77.20
2019-04-07T17:36:56.464Z,77.10
2019-04-07T17:39:48.328Z,77.00
2019-04-07T17:42:20.104Z,86.20
2019-04-07T17:45:20.417Z,77.50
2019-04-07T17:48:07.112Z,87.60
2019-04-07T17:51:01.047Z,78.50
2019-04-07T17:53:53.898Z,78.20
2019-04-07T17:56:43.190Z,78.60
2019-04-07T17:59:32.845Z,78.90
2019-04-07T18:02:17.118Z,81.50
2019-04-07T18:05:00.716Z,91.10
2019-04-07T18:07:56.430Z,83.20
2019-04-07T18:10:57.868Z,91.60
2019-04-07T18:13:49.694Z,84.70
2019-04-07T18:16:35.255Z,85.60
2019-04-07T18:19:22.403Z,85.60
2019-04-07T18:22:10.321Z,86.20
2019-04-07T18:25:01.876Z,86.60
2019-04-07T18:27:47.483Z,87.00
2019-04-07T18:30:35.742Z,87.30
2019-04-07T18:33:22.793Z,92.70
2019-04-07T18:36:12.021Z,93.40
2019-04-07T18:39:11.207Z,87.20
2019-04-07T18:42:06.555Z,86.60
2019-04-07T18:44:56.231Z,87.10
2019-04-07T18:47:37.002Z,88.30
2019-04-07T18:50:27.405Z,88.00
2019-04-07T18:53:27.599Z,94.40
2019-04-07T18:56:30.959Z,93.20
2019-04-07T18:59:32.078Z,94.20
2019-04-07T19:02:33.316Z,94.90
2019-04-07T19:05:36.438Z,95.30
2019-04-07T19:08:17.446Z,93.60
2019-04-07T19:11:18.158Z,96.20
2019-04-07T19:14:20.404Z,97.00
2019-04-07T19:16:36.212Z,94.70
2019-04-07T19:19:24.079Z,94.70
2019-04-07T19:22:28.414Z,95.40
2019-04-07T19:25:20.364Z,95.00
2019-04-07T19:28:09.402Z,95.20
2019-04-07T19:30:59.219Z,96.10
2019-04-07T19:33:55.932Z,90.40
2019-04-07T19:36:46.560Z,94.50
2019-04-07T19:39:32.917Z,95.40
2019-04-07T19:42:28.500Z,95.90
2019-04-07T19:45:24.773Z,94.90
2019-04-07T19:48:09.871Z,94.20
2019-04-07T19:51:14.337Z,95.40
2019-04-07T19:54:06.621Z,95.40
2019-04-07T19:56:57.646Z,96.20
2019-04-07T20:00:02.582Z,99.40
2019-04-07T20:02:51.746Z,99.90
2019-04-07T20:05:43.040Z,99.90
2019-04-07T20:08:33.862Z,99.90
2019-04-07T20:11:22.154Z,99.90
2019-04-07T20:14:14.527Z,99.90
2019-04-07T20:17:04.169Z,99.90
2019-04-07T20:19:53.584Z,99.90
2019-04-07T20:22:56.277Z,99.90
2019-04-07T20:25:35.486Z,99.90
2019-04-07T20:28:15.195Z,99.90
2019-04-07T20:31:12.627Z,99.90
2019-04-07T20:34:06.418Z,99.90
2019-04-07T20:36:58.304Z,99.90
2019-04-07T20:39:47.748Z,99.90
2019-04-07T20:45:17.505Z,99.90
2019-04-07T20:48:07.669Z,99.90
2019-04-07T20:50:58.330Z,99.90
2019-04-07T20:53:53.678Z,99.90
2019-04-07T20:56:44.409Z,99.90
2019-04-07T20:59:33.315Z,99.90
2019-04-07T21:02:23.236Z,99.90
2019-04-07T21:05:05.678Z,99.90
2019-04-07T21:07:47.388Z,99.90
2019-04-07T21:10:39.348Z,99.90
2019-04-07T21:13:37.566Z,99.90
2019-04-07T21:16:17.671Z,99.90
2019-04-07T21:18:59.123Z,99.90
2019-04-07T21:21:57.195Z,99.90
2019-04-07T21:24:52.955Z,99.90
2019-04-07T21:27:36.148Z,99.90
2019-04-07T21:30:39.917Z,99.90
2019-04-07T21:33:47.649Z,99.90
2019-04-07T21:36:37.616Z,99.90
2019-04-07T21:39:39.613Z,99.90
2019-04-07T21:42:31.881Z,99.90
2019-04-07T21:45:32.629Z,99.90
2019-04-07T21:48:09.678Z,99.90
2019-04-07T21:50:55.106Z,99.90
2019-04-07T21:53:32.477Z,99.90
2019-04-07T21:56:22.088Z,99.90
2019-04-07T21:59:18.554Z,99.90
2019-04-07T22:02:13.826Z,99.90
2019-04-07T22:05:03.889Z,99.90
2019-04-07T22:07:43.997Z,99.90
2019-04-07T22:10:18.474Z,99.90
2019-04-07T22:12:46.078Z,99.90
2019-04-07T22:15:17.221Z,99.90
2019-04-07T22:17:47.882Z,99.90
2019-04-07T22:20:20.130Z,99.90
2019-04-07T22:22:49.675Z,99.90
2019-04-07T22:25:29.117Z,99.90
2019-04-07T22:27:59.455Z,99.90
2019-04-07T22:30:29.403Z,99.90
2019-04-07T22:32:59.817Z,99.90
2019-04-07T22:35:30.022Z,99.90
2019-04-07T22:38:00.978Z,99.90
2019-04-07T22:40:34.218Z,99.90
2019-04-07T22:43:02.527Z,99.90
2019-04-07T22:45:32.521Z,99.90
2019-04-07T22:48:03.417Z,99.90
2019-04-07T22:50:37.158Z,99.90
2019-04-07T22:53:04.948Z,99.90
2019-04-07T22:55:36.047Z,99.90
2019-04-07T22:58:05.988Z,99.90
2019-04-07T23:00:35.926Z,99.90
2019-04-07T23:03:05.941Z,99.90
2019-04-07T23:05:35.986Z,99.90
2019-04-07T23:08:05.919Z,99.90
2019-04-07T23:10:35.816Z,99.90
2019-04-07T23:13:05.725Z,99.90
2019-04-07T23:15:40.158Z,99.90
2019-04-07T23:18:07.473Z,99.90
2019-04-07T23:20:37.623Z,99.90
2019-04-07T23:23:07.648Z,99.90
2019-04-07T23:25:38.501Z,99.90
2019-04-07T23:28:08.699Z,99.90
2019-04-07T23:30:38.615Z,99.90
2019-04-07T23:33:08.533Z,99.90
2019-04-07T23:35:39.223Z,99.90
2019-04-07T23:38:09.245Z,99.90
2019-04-07T23:40:39.851Z,99.90
2019-04-07T23:43:09.787Z,99.90
2019-04-07T23:45:39.946Z,99.90
2019-04-07T23:48:10.437Z,99.90
2019-04-07T23:50:41.148Z,99.90
2019-04-07T23:53:47.143Z,99.90
2019-04-07T23:56:17.662Z,99.90
2019-04-07T23:58:47.669Z,99.90
